Terminal Aerodrome Forecast
Issued by NWS

Home | Current Version | Previous Version | Text Only | Print | Product List | Glossary On
Versions: 1 2 3 4 5 6 7 8 9 10 11 12 13 14 15 16 17 18 19 20 21 22 23 24 25 26 27 28 29 30 31 32 33 34 35 36 37 38 39 40 41 42 43
000
FTUS45 KCYS 231203 CCA
TAFAIA
TAF COR
KAIA 231203Z 2312/2412 12005KT P6SM BKN004 OVC007
      TEMPO 2312/2316 1SM BR OVC003
     FM231600 13015KT P6SM BKN006 OVC012
     FM232000 11013KT P6SM VCTS BKN007 OVC015CB
     FM240300 10014KT 2SM -RA BR BKN004 OVC007=

USA.gov is the U.S. government's official web portal to all federal, state and local government web resources and services.